Overview Statistics Trail Chart Weather Telemetry Raw packets
 

This is the latest recevied telemetry packets stored in our database for station/object DB0MGN-1. If no packets are shown the sender has not sent any telemetry packets the latest 10 day(s).

Telemetry packets is used to share measurements like repeteater parameters, battery voltage, radiation readings (or any other measurements).

<< 1 2 3 4 >>
Time Press* Temp.in* Hum* QNH* Temp.out*
1788677845 990.2 hPa 23.5 C deg 0 % 1034.4 hPa 0 C deg
1788676794 990 hPa 23.3 C deg 0 % 1034.3 hPa 0 C deg
1788676007 990 hPa 23.3 C deg 0 % 1034.3 hPa 0 C deg
1788674711 989.8 hPa 23.4 C deg 0 % 1034 hPa 0 C deg
1788674177 989.8 hPa 23.4 C deg 0 % 1034 hPa 0 C deg
1788672397 989.7 hPa 23.5 C deg 0 % 1033.9 hPa 0 C deg
1788672346 989.7 hPa 23.5 C deg 0 % 1033.9 hPa 0 C deg
1788670516 989.4 hPa 23.6 C deg 0 % 1033.6 hPa 0 C deg
1788668700 989.3 hPa 23.6 C deg 0 % 1033.4 hPa 0 C deg
1788668686 989.3 hPa 23.6 C deg 0 % 1033.4 hPa 0 C deg
1788666860 989.1 hPa 23.8 C deg 0 % 1033.2 hPa 0 C deg
1788666856 989.1 hPa 23.8 C deg 0 % 1033.2 hPa 0 C deg
1788665038 989.1 hPa 24.1 C deg 0 % 1033.2 hPa 0 C deg
1788665026 989.1 hPa 24.1 C deg 0 % 1033.2 hPa 0 C deg
1788663269 989 hPa 24.2 C deg 0 % 1033 hPa 0 C deg
1788663196 989 hPa 24.2 C deg 0 % 1033 hPa 0 C deg
1788661402 988.7 hPa 24.6 C deg 0 % 1032.7 hPa 0 C deg
1788661366 988.7 hPa 24.6 C deg 0 % 1032.7 hPa 0 C deg
1788659536 988.8 hPa 24.9 C deg 0 % 1032.7 hPa 0 C deg
1788657721 988.5 hPa 25.1 C deg 0 % 1032.3 hPa 0 C deg
1788657706 988.5 hPa 25.1 C deg 0 % 1032.3 hPa 0 C deg
1788655876 988.3 hPa 25.3 C deg 0 % 1032.2 hPa 0 C deg
1788654047 988.1 hPa 25.5 C deg 0 % 1031.9 hPa 0 C deg
1788654045 988.1 hPa 25.5 C deg 0 % 1031.9 hPa 0 C deg
1788652220 988.2 hPa 25.9 C deg 0 % 1031.9 hPa 0 C deg
*Used Equation Coefficients:
Press: 0, 1, 0
Temp.in: 0, 1, 0
Hum: 0, 1, 0
QNH: 0, 1, 0
Temp.out: 0, 1, 0

  • The parameter names for the analog channels will be Value1, Value2, Value3 (up to Value5) if station has not sent a PARAM-packet that specifies the parameter names for each analog channel.
  • Each analog value is a decimal number between 000 and 255 (according to APRS specifications). The receiver use the telemetry equation coefficientsto to restore the original sensor values. If no EQNS-packet with equation coefficients is sent we will show the values as is (this corresponds to the equation coefficients a=0, b=1 and c=0).
    The sent equation coefficients is used in the equation: a * value2 + b * value + c.
  • The units for the analog values will not be shown if station has not sent a UNIT-packet specifying what unit's to use.
  • The parameter names for the digital bits will be Bit1, Bit2, Bit3 (up to Bit8) if station has not sent a PARAM-packet that specifies the parameter names for each digital bit.
  • All bit labels will be named "On" if station has not sent a UNIT-packet that specifies the label of each bit.
  • A bit is considered to be On when the bit is 1 if station has not sent a BITS-packet that specifies another "Bit sense" (a BITS-packet specify the state of the bits that match the BIT labels)